createdAt,value
2022-11-03T05:24:16.818Z,4.47
2022-11-03T05:36:36.643Z,4.37
2022-11-03T05:39:31.326Z,4.63
2022-11-03T05:42:00.380Z,4.77
2022-11-03T05:44:36.965Z,4.70
2022-11-03T05:47:13.781Z,5.17
2022-11-03T05:52:25.596Z,4.70
2022-11-03T05:54:55.443Z,4.73
2022-11-03T05:57:22.714Z,4.43
2022-11-03T05:59:52.374Z,5.30
2022-11-03T06:02:39.713Z,4.97
2022-11-03T06:08:18.725Z,4.90
2022-11-03T06:13:48.845Z,4.70
2022-11-03T06:16:32.619Z,5.10
2022-11-03T06:19:01.869Z,7.77
2022-11-03T06:21:30.480Z,6.90
2022-11-03T06:23:59.553Z,4.83
2022-11-03T06:26:28.633Z,5.17
2022-11-03T06:28:56.267Z,5.57
2022-11-03T06:31:29.923Z,4.73
2022-11-03T06:34:01.593Z,4.50
2022-11-03T06:36:36.966Z,4.67
2022-11-03T06:39:22.319Z,5.10
2022-11-03T06:41:50.056Z,6.10
2022-11-03T06:44:24.933Z,10.60
2022-11-03T06:46:56.805Z,7.80
2022-11-03T06:49:39.377Z,6.77
2022-11-03T06:52:35.381Z,6.17
2022-11-03T06:55:12.321Z,6.40
2022-11-03T06:57:46.430Z,7.23
2022-11-03T07:01:11.718Z,8.30
2022-11-03T07:03:46.735Z,7.53
2022-11-03T07:06:24.381Z,7.50
2022-11-03T07:09:07.147Z,7.27
2022-11-03T07:11:49.866Z,8.03
2022-11-03T07:14:23.018Z,6.37
2022-11-03T07:16:56.043Z,6.73
2022-11-03T07:19:34.419Z,7.70
2022-11-03T07:22:06.364Z,7.90
2022-11-03T07:24:39.218Z,8.43
2022-11-03T07:27:22.239Z,7.43
2022-11-03T07:29:59.391Z,7.70
2022-11-03T07:32:31.252Z,7.43
2022-11-03T07:35:17.093Z,8.37
2022-11-03T07:37:50.589Z,8.53
2022-11-03T07:40:34.939Z,9.17
2022-11-03T07:43:18.510Z,7.70
2022-11-03T07:45:52.387Z,8.70
2022-11-03T07:48:25.151Z,6.97
2022-11-03T07:50:58.743Z,8.47
2022-11-03T07:53:45.860Z,6.67
2022-11-03T07:56:20.902Z,7.30
2022-11-03T07:58:54.338Z,6.93
2022-11-03T08:01:26.291Z,6.83
2022-11-03T08:04:01.117Z,7.47
2022-11-03T08:06:28.491Z,7.10
2022-11-03T08:08:55.940Z,8.00
2022-11-03T08:11:27.785Z,6.77
2022-11-03T08:13:59.691Z,8.67
2022-11-03T08:16:28.886Z,8.30
2022-11-03T08:19:04.017Z,8.00
2022-11-03T08:21:38.145Z,8.70
2022-11-03T08:24:08.257Z,8.27
2022-11-03T08:26:35.840Z,8.20
2022-11-03T08:29:03.391Z,8.23
2022-11-03T08:31:30.723Z,7.70
2022-11-03T08:33:58.138Z,8.67
2022-11-03T08:36:25.512Z,7.43
2022-11-03T08:38:52.944Z,7.80
2022-11-03T08:41:20.253Z,8.10
2022-11-03T08:43:47.551Z,8.37
2022-11-03T08:46:17.960Z,7.77
2022-11-03T08:48:46.558Z,7.80
2022-11-03T08:51:15.584Z,7.60
2022-11-03T08:53:47.067Z,8.17
2022-11-03T08:56:26.189Z,7.50
2022-11-03T08:59:14.229Z,6.67
2022-11-03T09:05:48.636Z,9.03
2022-11-03T09:12:06.789Z,7.73
2022-11-03T09:14:35.575Z,6.80
2022-11-03T09:20:32.077Z,7.27
2022-11-03T09:23:13.255Z,6.80
2022-11-03T09:25:40.617Z,7.30
2022-11-03T09:28:08.411Z,7.27
2022-11-03T09:30:35.923Z,6.87
2022-11-03T09:33:03.845Z,7.60
2022-11-03T09:35:31.242Z,8.53
2022-11-03T09:37:58.545Z,8.70
2022-11-03T09:40:26.315Z,7.40
2022-11-03T09:42:54.013Z,6.43
2022-11-03T09:45:23.423Z,6.30
2022-11-03T09:47:50.834Z,6.87
2022-11-03T09:50:20.124Z,6.43
2022-11-03T09:52:51.480Z,6.27
2022-11-03T09:55:25.349Z,6.83
2022-11-03T09:58:00.259Z,6.10
2022-11-03T10:00:28.336Z,6.37
2022-11-03T10:02:56.513Z,7.27
2022-11-03T10:05:28.593Z,6.70
2022-11-03T10:08:03.120Z,6.87
2022-11-03T10:10:31.712Z,7.10
2022-11-03T10:13:00.956Z,6.67
2022-11-03T10:15:28.570Z,6.90
2022-11-03T10:17:56.756Z,6.93
2022-11-03T10:20:26.446Z,7.90
2022-11-03T10:22:55.074Z,6.90
2022-11-03T10:25:40.353Z,6.57
2022-11-03T10:41:59.568Z,6.27
2022-11-03T10:44:28.855Z,5.90
2022-11-03T10:47:01.060Z,6.60
2022-11-03T10:49:33.371Z,6.17
2022-11-03T10:52:22.563Z,5.63
2022-11-03T10:54:51.589Z,5.60
2022-11-03T10:57:19.523Z,6.20
2022-11-03T10:59:49.035Z,7.30
2022-11-03T11:02:22.126Z,5.57
2022-11-03T11:04:56.338Z,6.97
2022-11-03T11:07:34.946Z,5.90
2022-11-03T11:10:29.815Z,7.17
2022-11-03T11:13:18.867Z,6.77
2022-11-03T11:15:47.387Z,6.00
2022-11-03T11:18:40.514Z,6.13
2022-11-03T11:21:19.691Z,5.50
2022-11-03T11:23:48.263Z,7.00
2022-11-03T11:26:24.920Z,5.87
2022-11-03T11:29:11.215Z,6.60
2022-11-03T11:31:42.704Z,5.70
2022-11-03T11:34:10.137Z,6.20
2022-11-03T11:36:40.626Z,5.27
2022-11-03T11:39:27.761Z,5.90
2022-11-03T11:42:12.291Z,6.27
2022-11-03T11:44:39.851Z,5.30
2022-11-03T11:47:26.167Z,5.60
2022-11-03T11:50:11.562Z,5.83
2022-11-03T11:52:42.745Z,5.77
2022-11-03T11:55:20.640Z,5.10
2022-11-03T11:57:48.064Z,6.57
2022-11-03T12:00:23.461Z,5.60
2022-11-03T12:02:52.892Z,6.10
2022-11-03T12:05:32.305Z,6.53
2022-11-03T12:08:00.194Z,6.57
2022-11-03T12:10:47.281Z,6.93
2022-11-03T12:13:51.518Z,6.40
2022-11-03T12:16:32.007Z,7.10
2022-11-03T12:19:39.043Z,7.23
2022-11-03T12:22:09.472Z,6.70
2022-11-03T12:24:51.592Z,6.60
2022-11-03T12:27:40.970Z,6.20
2022-11-03T12:30:19.186Z,5.70
2022-11-03T12:32:47.368Z,6.37
2022-11-03T12:35:15.066Z,5.53
2022-11-03T12:37:43.698Z,6.33
2022-11-03T12:40:13.593Z,6.60
2022-11-03T12:42:44.694Z,6.13
2022-11-03T12:49:47.579Z,6.33
2022-11-03T12:52:49.545Z,5.60
2022-11-03T12:55:44.609Z,5.63
2022-11-03T12:58:18.868Z,5.90
2022-11-03T13:00:50.052Z,6.30
2022-11-03T13:03:22.382Z,6.23
2022-11-03T13:11:45.975Z,6.13
2022-11-03T13:14:16.657Z,5.43
2022-11-03T13:16:45.839Z,5.37
2022-11-03T13:19:13.431Z,6.60
2022-11-03T13:21:40.943Z,6.50
2022-11-03T13:24:08.322Z,5.53
2022-11-03T13:26:35.614Z,5.77
2022-11-03T13:29:03.546Z,5.47
2022-11-03T13:31:31.419Z,5.50
2022-11-03T13:33:58.852Z,5.40
2022-11-03T13:36:26.632Z,6.17
2022-11-03T13:38:54.716Z,6.27
2022-11-03T13:41:22.278Z,5.93
2022-11-03T13:43:49.721Z,6.10
2022-11-03T14:04:49.675Z,5.50
2022-11-03T14:07:17.043Z,6.43
2022-11-03T14:09:44.360Z,5.60
2022-11-03T14:12:41.774Z,5.70
2022-11-03T14:15:12.006Z,6.33
2022-11-03T14:17:40.330Z,6.83
2022-11-03T14:20:12.372Z,7.40
2022-11-03T14:22:41.298Z,8.13
2022-11-03T14:25:09.675Z,6.80
2022-11-03T14:27:38.430Z,7.10
2022-11-03T14:30:07.929Z,7.27
2022-11-03T14:32:35.779Z,7.77
2022-11-03T14:41:42.588Z,9.17
2022-11-03T14:44:09.933Z,8.47
2022-11-03T14:46:37.555Z,8.00
2022-11-03T14:49:05.689Z,7.43
2022-11-03T14:51:33.897Z,9.23
2022-11-03T14:54:01.183Z,8.57
2022-11-03T14:56:28.460Z,7.70
2022-11-03T14:58:55.850Z,8.60
2022-11-03T15:01:23.359Z,8.60
2022-11-03T15:03:51.199Z,8.50
2022-11-03T15:06:18.731Z,8.97
2022-11-03T15:08:54.993Z,8.90
2022-11-03T15:11:25.550Z,8.87
2022-11-03T15:13:56.627Z,9.00
2022-11-03T15:16:49.513Z,8.13
2022-11-03T15:26:25.816Z,10.33
2022-11-03T15:28:53.645Z,10.30
2022-11-03T15:31:23.715Z,11.27
2022-11-03T15:33:51.196Z,11.47
2022-11-03T15:36:18.625Z,11.10
2022-11-03T15:38:50.647Z,10.53
2022-11-03T15:41:19.325Z,10.07
2022-11-03T15:43:48.547Z,8.90
2022-11-03T15:46:20.485Z,9.47
2022-11-03T15:55:09.812Z,9.73
2022-11-03T15:57:54.410Z,8.93
2022-11-03T16:00:43.245Z,10.47
2022-11-03T16:03:12.776Z,9.87
2022-11-03T16:05:41.623Z,9.67
2022-11-03T16:08:09.644Z,10.40
2022-11-03T16:10:37.039Z,8.43
2022-11-03T16:13:04.672Z,8.87
2022-11-03T16:15:32.056Z,9.20
2022-11-03T16:40:23.797Z,12.83
2022-11-03T16:42:51.312Z,13.20
2022-11-03T16:45:22.094Z,14.20
2022-11-03T16:47:50.764Z,14.00
2022-11-03T16:50:19.905Z,17.80
2022-11-03T16:52:49.140Z,23.40
2022-11-03T16:55:20.406Z,24.90
2022-11-03T16:57:47.777Z,27.63
2022-11-03T17:00:19.686Z,33.57
2022-11-03T17:02:48.586Z,34.10
2022-11-03T17:05:18.839Z,34.03
2022-11-03T17:07:53.231Z,29.57
2022-11-03T17:10:22.568Z,23.83
2022-11-03T17:12:50.880Z,20.90
2022-11-03T17:15:18.449Z,16.17
2022-11-03T17:17:45.764Z,18.73
2022-11-03T17:20:13.653Z,20.00
2022-11-03T17:22:40.990Z,17.43
2022-11-03T17:25:11.696Z,15.30
2022-11-03T17:27:49.343Z,19.57
2022-11-03T17:30:25.954Z,15.77
2022-11-03T17:33:06.025Z,15.63
2022-11-03T17:35:39.637Z,13.23
2022-11-03T17:38:16.154Z,17.47
2022-11-03T17:40:47.660Z,15.83
2022-11-03T17:43:22.429Z,16.63
2022-11-03T17:45:49.927Z,13.60
2022-11-03T17:48:17.318Z,12.23
2022-11-03T17:50:50.317Z,12.53
2022-11-03T17:53:32.041Z,10.90
2022-11-03T17:56:29.609Z,12.37
2022-11-03T17:58:49.604Z,10.97
2022-11-03T18:01:22.068Z,10.77
2022-11-03T18:03:51.990Z,9.07
2022-11-03T18:06:20.689Z,9.50
2022-11-03T18:08:51.805Z,9.90
2022-11-03T18:11:48.680Z,9.47
2022-11-03T18:14:19.805Z,9.27
2022-11-03T18:16:48.795Z,8.97
2022-11-03T18:19:18.807Z,8.63
2022-11-03T18:21:47.413Z,9.63
2022-11-03T18:24:19.703Z,9.73
2022-11-03T18:27:15.108Z,9.53
2022-11-03T18:29:44.190Z,10.30
2022-11-03T18:32:17.348Z,10.60
2022-11-03T18:34:46.908Z,10.30
2022-11-03T18:37:15.372Z,10.57
2022-11-03T18:39:43.017Z,9.37
2022-11-03T18:42:13.885Z,10.17
2022-11-03T18:44:43.141Z,10.57
2022-11-03T18:47:35.810Z,10.17
2022-11-03T18:50:04.433Z,13.93
2022-11-03T18:52:41.047Z,13.47
2022-11-03T18:55:13.154Z,11.40
2022-11-03T18:57:41.510Z,11.63
2022-11-03T19:00:21.576Z,11.27
2022-11-03T19:02:51.128Z,10.67
2022-11-03T19:05:24.465Z,9.53
2022-11-03T19:07:56.834Z,10.77
2022-11-03T19:10:24.675Z,9.83
2022-11-03T19:12:52.624Z,10.47
2022-11-03T19:15:22.754Z,10.23
2022-11-03T19:17:54.785Z,9.90
2022-11-03T19:20:23.712Z,9.17
2022-11-03T19:22:52.867Z,9.10
2022-11-03T19:25:20.593Z,9.87
2022-11-03T19:27:49.180Z,10.17
2022-11-03T19:30:18.585Z,8.33
2022-11-03T19:32:49.249Z,9.73
2022-11-03T19:35:33.630Z,8.63
2022-11-03T19:38:10.639Z,9.90
2022-11-03T19:40:59.882Z,10.47
2022-11-03T19:43:33.297Z,10.17
2022-11-03T19:46:06.647Z,9.13
2022-11-03T19:48:34.863Z,8.80
2022-11-03T19:51:04.956Z,9.40
2022-11-03T19:53:33.153Z,10.33
2022-11-03T19:56:01.296Z,9.77
2022-11-03T19:58:30.102Z,10.73
2022-11-03T20:00:57.736Z,11.20
2022-11-03T20:03:25.627Z,10.47
2022-11-03T20:05:57.801Z,9.73
2022-11-03T20:08:41.514Z,9.93
2022-11-03T20:11:20.377Z,10.40
2022-11-03T20:13:48.707Z,10.10
2022-11-03T20:16:17.569Z,10.20
2022-11-03T20:18:45.074Z,9.87
2022-11-03T20:21:16.869Z,9.67
2022-11-03T20:23:45.895Z,9.93
2022-11-03T20:26:19.376Z,10.43
2022-11-03T20:28:48.039Z,10.47
2022-11-03T20:31:17.100Z,10.57
2022-11-03T20:33:44.718Z,11.33
2022-11-03T20:36:18.031Z,12.17
2022-11-03T20:38:52.417Z,12.57
2022-11-03T20:41:19.875Z,13.00
2022-11-03T20:43:55.150Z,11.30
2022-11-03T20:46:27.012Z,12.17
2022-11-03T20:48:55.440Z,11.10
2022-11-03T20:51:26.070Z,11.43
2022-11-03T20:53:54.352Z,10.60
2022-11-03T20:56:24.957Z,11.33
2022-11-03T20:58:53.064Z,9.57
2022-11-03T21:01:26.536Z,8.97
2022-11-03T21:03:59.451Z,9.23
2022-11-03T21:06:30.252Z,9.17
2022-11-03T21:08:57.930Z,10.27
2022-11-03T21:11:27.938Z,9.53
2022-11-03T21:14:01.105Z,9.47
2022-11-03T21:16:48.489Z,10.30
2022-11-03T21:19:39.640Z,9.63
2022-11-03T21:22:54.132Z,11.10
2022-11-03T21:25:25.394Z,10.23
2022-11-03T21:27:54.723Z,9.17
2022-11-03T21:30:23.030Z,9.40
2022-11-03T21:32:50.475Z,9.47
2022-11-03T21:35:20.522Z,9.93
2022-11-03T21:41:32.164Z,9.73
2022-11-03T21:44:15.004Z,9.83
2022-11-03T21:46:43.461Z,9.33
2022-11-03T21:49:29.629Z,8.17
2022-11-03T21:51:57.475Z,8.07
2022-11-03T21:54:25.508Z,8.13
2022-11-03T21:56:54.759Z,7.47
2022-11-03T21:59:24.788Z,7.43
2022-11-03T22:01:55.900Z,7.80
2022-11-03T22:04:23.681Z,7.27
2022-11-03T22:06:54.351Z,7.13
2022-11-03T22:09:22.596Z,10.77
2022-11-03T22:11:50.439Z,10.03
2022-11-03T22:14:18.412Z,10.00
2022-11-03T22:16:46.611Z,8.13
2022-11-03T22:19:36.561Z,8.30
2022-11-03T22:22:30.911Z,8.20
2022-11-03T22:25:17.544Z,8.80
2022-11-03T22:27:45.195Z,8.73
2022-11-03T22:30:31.888Z,7.60
2022-11-03T22:32:59.390Z,7.90
2022-11-03T22:50:58.084Z,8.70
2022-11-03T22:53:44.294Z,9.57
2022-11-03T22:56:12.048Z,8.97
2022-11-03T22:58:39.986Z,8.37
2022-11-03T23:01:12.579Z,9.43
2022-11-03T23:03:41.665Z,8.70
2022-11-03T23:06:11.524Z,10.57
2022-11-03T23:08:43.199Z,8.83
2022-11-03T23:11:25.574Z,9.43
2022-11-03T23:13:55.609Z,9.23
2022-11-03T23:16:25.828Z,9.37
